Airport View

Enter AWOS ICAO identifier for current METAR.

ex. KFNL

KSLH 080435Z AUTO 00000KT 10SM CLR 19/18 A2994 RMK AO2 T01860182

8 Jul 2020 04:50

Frequency: 118.175

Phone: 231-627-4671

Other Area AWOS: KPLN - KMCD - KMGN - KPZQ

TAF KPLN 072340Z 0800/0824 26010KT P6SM SCT250 FM080200 VRB03KT P6SM SCT250 FM080800 00000KT 3SM BR SCT250 FM081200 VRB03KT P6SM SCT250 FM081500 18005KT P6SM FEW250 FM082000 24007KT P6SM FEW250